sensor_id;sensor_type;location;lat;lon;timestamp;pressure;altitude;pressure_sealevel;temperature;humidity
46955;BME280;32708;51.212;6.788;2023-06-22T00:02:15;101169.69;;;27.57;53.58
46955;BME280;32708;51.212;6.788;2023-06-22T00:04:41;101159.59;;;28.10;52.33
46955;BME280;32708;51.212;6.788;2023-06-22T00:07:07;101172.47;;;27.84;53.15
46955;BME280;32708;51.212;6.788;2023-06-22T00:09:34;101169.44;;;27.48;55.06
46955;BME280;32708;51.212;6.788;2023-06-22T00:12:00;101164.41;;;27.63;54.38
46955;BME280;32708;51.212;6.788;2023-06-22T00:14:27;101162.00;;;27.38;54.21
46955;BME280;32708;51.212;6.788;2023-06-22T00:16:53;101159.44;;;27.47;53.72
46955;BME280;32708;51.212;6.788;2023-06-22T00:19:23;101166.16;;;27.53;53.89
46955;BME280;32708;51.212;6.788;2023-06-22T00:21:53;101166.63;;;27.48;53.83
46955;BME280;32708;51.212;6.788;2023-06-22T00:24:20;101157.19;;;27.38;54.78
46955;BME280;32708;51.212;6.788;2023-06-22T00:26:48;101162.72;;;27.69;53.59
46955;BME280;32708;51.212;6.788;2023-06-22T00:29:16;101156.66;;;27.47;53.19
46955;BME280;32708;51.212;6.788;2023-06-22T00:31:42;101165.00;;;27.51;54.36
46955;BME280;32708;51.212;6.788;2023-06-22T00:34:09;101173.06;;;26.91;55.86
46955;BME280;32708;51.212;6.788;2023-06-22T00:36:36;101167.00;;;26.66;56.93
46955;BME280;32708;51.212;6.788;2023-06-22T00:39:03;101167.91;;;26.86;56.97
46955;BME280;32708;51.212;6.788;2023-06-22T00:41:30;101169.41;;;27.25;56.46
46955;BME280;32708;51.212;6.788;2023-06-22T00:43:57;101168.50;;;27.04;56.71
46955;BME280;32708;51.212;6.788;2023-06-22T00:46:25;101166.13;;;26.72;57.89
46955;BME280;32708;51.212;6.788;2023-06-22T00:48:52;101169.91;;;26.55;59.96
46955;BME280;32708;51.212;6.788;2023-06-22T00:51:20;101173.16;;;26.84;60.26
46955;BME280;32708;51.212;6.788;2023-06-22T00:53:51;101164.38;;;26.82;59.45
46955;BME280;32708;51.212;6.788;2023-06-22T00:56:19;101166.91;;;26.35;60.71
46955;BME280;32708;51.212;6.788;2023-06-22T00:58:51;101167.53;;;26.53;61.65
46955;BME280;32708;51.212;6.788;2023-06-22T01:01:19;101170.56;;;26.32;62.63
46955;BME280;32708;51.212;6.788;2023-06-22T01:03:49;101159.16;;;26.50;62.67
46955;BME280;32708;51.212;6.788;2023-06-22T01:06:26;101163.94;;;26.53;62.87
46955;BME280;32708;51.212;6.788;2023-06-22T01:09:13;101165.03;;;26.63;62.69
46955;BME280;32708;51.212;6.788;2023-06-22T01:11:55;101162.03;;;26.46;64.08
46955;BME280;32708;51.212;6.788;2023-06-22T01:17:02;101157.44;;;26.25;66.52
46955;BME280;32708;51.212;6.788;2023-06-22T01:22:10;101158.06;;;26.02;69.38
46955;BME280;32708;51.212;6.788;2023-06-22T01:25:13;101150.75;;;26.50;67.05
46955;BME280;32708;51.212;6.788;2023-06-22T01:28:17;101151.25;;;26.75;66.03
46955;BME280;32708;51.212;6.788;2023-06-22T01:30:49;101154.34;;;26.13;67.77
46955;BME280;32708;51.212;6.788;2023-06-22T01:33:37;101141.16;;;26.13;69.10
46955;BME280;32708;51.212;6.788;2023-06-22T01:36:07;101145.06;;;26.23;69.87
46955;BME280;32708;51.212;6.788;2023-06-22T01:38:34;101134.22;;;26.63;68.32
46955;BME280;32708;51.212;6.788;2023-06-22T01:41:03;101132.28;;;26.56;68.18
46955;BME280;32708;51.212;6.788;2023-06-22T01:43:31;101134.78;;;26.81;67.67
46955;BME280;32708;51.212;6.788;2023-06-22T01:46:01;101137.38;;;26.30;70.66
46955;BME280;32708;51.212;6.788;2023-06-22T01:48:30;101146.16;;;25.95;72.09
46955;BME280;32708;51.212;6.788;2023-06-22T01:50:57;101134.38;;;26.48;70.98
46955;BME280;32708;51.212;6.788;2023-06-22T01:53:24;101135.31;;;26.72;68.98
46955;BME280;32708;51.212;6.788;2023-06-22T01:55:52;101147.16;;;26.53;71.09
46955;BME280;32708;51.212;6.788;2023-06-22T01:58:23;101142.16;;;25.92;73.14
46955;BME280;32708;51.212;6.788;2023-06-22T02:01:01;101137.84;;;26.25;73.72
46955;BME280;32708;51.212;6.788;2023-06-22T02:03:37;101131.31;;;26.39;72.83
46955;BME280;32708;51.212;6.788;2023-06-22T02:06:24;101136.84;;;26.43;73.21
46955;BME280;32708;51.212;6.788;2023-06-22T02:09:02;101142.41;;;26.46;73.48
46955;BME280;32708;51.212;6.788;2023-06-22T02:11:31;101137.91;;;26.18;74.64
46955;BME280;32708;51.212;6.788;2023-06-22T02:13:58;101140.25;;;26.23;73.55
46955;BME280;32708;51.212;6.788;2023-06-22T02:16:27;101144.53;;;25.97;75.97
46955;BME280;32708;51.212;6.788;2023-06-22T02:18:55;101147.81;;;26.26;74.72
46955;BME280;32708;51.212;6.788;2023-06-22T02:21:23;101135.41;;;26.27;74.09
46955;BME280;32708;51.212;6.788;2023-06-22T02:23:49;101140.50;;;26.36;75.36
46955;BME280;32708;51.212;6.788;2023-06-22T02:26:17;101130.59;;;26.28;75.18
46955;BME280;32708;51.212;6.788;2023-06-22T02:28:44;101133.94;;;25.71;78.09
46955;BME280;32708;51.212;6.788;2023-06-22T02:31:11;101131.03;;;25.89;78.39
46955;BME280;32708;51.212;6.788;2023-06-22T02:33:37;101126.31;;;25.78;77.89
46955;BME280;32708;51.212;6.788;2023-06-22T02:36:04;101127.00;;;25.93;78.34
46955;BME280;32708;51.212;6.788;2023-06-22T02:38:35;101119.47;;;26.21;77.67
46955;BME280;32708;51.212;6.788;2023-06-22T02:41:02;101115.16;;;26.16;78.32
46955;BME280;32708;51.212;6.788;2023-06-22T02:43:28;101114.56;;;26.32;76.59
46955;BME280;32708;51.212;6.788;2023-06-22T02:45:55;101109.50;;;25.82;78.66
46955;BME280;32708;51.212;6.788;2023-06-22T02:48:21;101112.00;;;26.11;77.59
46955;BME280;32708;51.212;6.788;2023-06-22T02:50:47;101113.91;;;25.83;78.39
46955;BME280;32708;51.212;6.788;2023-06-22T02:53:14;101115.81;;;25.93;79.24
46955;BME280;32708;51.212;6.788;2023-06-22T02:55:44;101108.66;;;25.40;80.75
46955;BME280;32708;51.212;6.788;2023-06-22T02:58:10;101105.50;;;26.21;78.98
46955;BME280;32708;51.212;6.788;2023-06-22T03:00:38;101100.38;;;26.16;77.42
46955;BME280;32708;51.212;6.788;2023-06-22T03:03:05;101104.94;;;25.99;78.06
46955;BME280;32708;51.212;6.788;2023-06-22T03:05:31;101093.41;;;26.61;75.21
46955;BME280;32708;51.212;6.788;2023-06-22T03:08:01;101089.25;;;26.43;76.33
46955;BME280;32708;51.212;6.788;2023-06-22T03:10:30;101088.94;;;26.33;76.53
46955;BME280;32708;51.212;6.788;2023-06-22T03:12:56;101089.00;;;26.30;77.48
46955;BME280;32708;51.212;6.788;2023-06-22T03:15:22;101087.78;;;26.31;77.29
46955;BME280;32708;51.212;6.788;2023-06-22T03:17:48;101089.72;;;26.03;78.04
46955;BME280;32708;51.212;6.788;2023-06-22T03:20:14;101075.78;;;25.96;79.96
46955;BME280;32708;51.212;6.788;2023-06-22T03:22:42;101084.19;;;26.30;78.10
46955;BME280;32708;51.212;6.788;2023-06-22T03:25:09;101082.78;;;26.15;79.12
46955;BME280;32708;51.212;6.788;2023-06-22T03:27:41;101081.34;;;26.34;78.60
46955;BME280;32708;51.212;6.788;2023-06-22T03:30:11;101084.13;;;26.34;78.99
46955;BME280;32708;51.212;6.788;2023-06-22T03:32:37;101076.91;;;26.40;77.45
46955;BME280;32708;51.212;6.788;2023-06-22T03:35:06;101066.19;;;26.62;77.09
46955;BME280;32708;51.212;6.788;2023-06-22T03:37:33;101065.06;;;26.59;78.40
46955;BME280;32708;51.212;6.788;2023-06-22T03:40:00;101053.63;;;26.47;78.02
46955;BME280;32708;51.212;6.788;2023-06-22T03:42:29;101062.63;;;26.27;79.55
46955;BME280;32708;51.212;6.788;2023-06-22T03:44:55;101066.63;;;26.26;80.09
46955;BME280;32708;51.212;6.788;2023-06-22T03:47:22;101054.56;;;26.33;79.20
46955;BME280;32708;51.212;6.788;2023-06-22T03:49:49;101060.91;;;26.37;79.53
46955;BME280;32708;51.212;6.788;2023-06-22T03:52:15;101064.69;;;26.23;79.30
46955;BME280;32708;51.212;6.788;2023-06-22T03:54:41;101064.09;;;25.64;82.06
46955;BME280;32708;51.212;6.788;2023-06-22T03:57:07;101058.75;;;26.52;78.09
46955;BME280;32708;51.212;6.788;2023-06-22T03:59:33;101050.81;;;26.13;80.37
46955;BME280;32708;51.212;6.788;2023-06-22T04:01:59;101056.44;;;25.75;82.16
46955;BME280;32708;51.212;6.788;2023-06-22T04:04:26;101067.53;;;25.41;84.17
46955;BME280;32708;51.212;6.788;2023-06-22T04:06:52;101070.41;;;25.71;83.86
46955;BME280;32708;51.212;6.788;2023-06-22T04:09:18;101074.13;;;25.61;85.01
46955;BME280;32708;51.212;6.788;2023-06-22T04:11:44;101062.78;;;25.34;84.56
46955;BME280;32708;51.212;6.788;2023-06-22T04:14:10;101061.63;;;25.28;84.68
46955;BME280;32708;51.212;6.788;2023-06-22T04:16:37;101065.03;;;25.50;84.24
46955;BME280;32708;51.212;6.788;2023-06-22T04:19:03;101068.38;;;26.17;80.50
46955;BME280;32708;51.212;6.788;2023-06-22T04:21:29;101061.84;;;26.27;79.28
46955;BME280;32708;51.212;6.788;2023-06-22T04:23:55;101055.06;;;26.58;77.12
46955;BME280;32708;51.212;6.788;2023-06-22T04:26:21;101052.06;;;26.42;77.89
46955;BME280;32708;51.212;6.788;2023-06-22T04:28:48;101052.81;;;26.46;77.50
46955;BME280;32708;51.212;6.788;2023-06-22T04:31:21;101052.66;;;26.57;76.98
46955;BME280;32708;51.212;6.788;2023-06-22T04:33:48;101062.59;;;26.31;78.14
46955;BME280;32708;51.212;6.788;2023-06-22T04:36:14;101062.25;;;26.25;78.85
46955;BME280;32708;51.212;6.788;2023-06-22T04:38:40;101055.91;;;26.21;78.43
46955;BME280;32708;51.212;6.788;2023-06-22T04:41:08;101052.72;;;25.85;80.63
46955;BME280;32708;51.212;6.788;2023-06-22T04:43:49;101060.50;;;26.04;78.69
46955;BME280;32708;51.212;6.788;2023-06-22T04:46:19;101059.50;;;26.22;77.90
46955;BME280;32708;51.212;6.788;2023-06-22T04:48:46;101066.34;;;25.83;79.66
46955;BME280;32708;51.212;6.788;2023-06-22T04:51:12;101077.13;;;26.19;79.60
46955;BME280;32708;51.212;6.788;2023-06-22T04:53:38;101069.06;;;26.58;76.30
46955;BME280;32708;51.212;6.788;2023-06-22T04:56:08;101070.97;;;26.65;75.89
46955;BME280;32708;51.212;6.788;2023-06-22T04:58:34;101068.09;;;26.04;79.62
46955;BME280;32708;51.212;6.788;2023-06-22T05:01:00;101070.47;;;26.05;78.64
46955;BME280;32708;51.212;6.788;2023-06-22T05:03:26;101074.63;;;26.28;77.66
46955;BME280;32708;51.212;6.788;2023-06-22T05:05:52;101073.81;;;26.61;75.86
46955;BME280;32708;51.212;6.788;2023-06-22T05:08:19;101057.38;;;26.64;76.72
46955;BME280;32708;51.212;6.788;2023-06-22T05:10:45;101056.06;;;26.45;77.65
46955;BME280;32708;51.212;6.788;2023-06-22T05:13:11;101059.25;;;26.74;75.38
46955;BME280;32708;51.212;6.788;2023-06-22T05:15:37;101061.28;;;26.70;76.51
46955;BME280;32708;51.212;6.788;2023-06-22T05:18:06;101058.38;;;27.04;74.54
46955;BME280;32708;51.212;6.788;2023-06-22T05:20:32;101062.91;;;26.40;78.06
46955;BME280;32708;51.212;6.788;2023-06-22T05:23:02;101062.53;;;26.96;75.31
46955;BME280;32708;51.212;6.788;2023-06-22T05:25:28;101064.31;;;26.82;74.92
46955;BME280;32708;51.212;6.788;2023-06-22T05:27:55;101064.81;;;27.04;74.03
46955;BME280;32708;51.212;6.788;2023-06-22T05:30:21;101065.34;;;26.92;74.88
46955;BME280;32708;51.212;6.788;2023-06-22T05:32:47;101073.41;;;27.17;74.80
46955;BME280;32708;51.212;6.788;2023-06-22T05:35:14;101078.47;;;27.26;73.72
46955;BME280;32708;51.212;6.788;2023-06-22T05:37:40;101074.22;;;27.18;73.89
46955;BME280;32708;51.212;6.788;2023-06-22T05:40:07;101068.91;;;27.47;72.93
46955;BME280;32708;51.212;6.788;2023-06-22T05:42:33;101073.53;;;27.10;73.86
46955;BME280;32708;51.212;6.788;2023-06-22T05:44:59;101073.63;;;27.03;74.56
46955;BME280;32708;51.212;6.788;2023-06-22T05:47:25;101064.94;;;27.21;73.02
46955;BME280;32708;51.212;6.788;2023-06-22T05:49:51;101065.63;;;27.01;74.33
46955;BME280;32708;51.212;6.788;2023-06-22T05:52:17;101066.59;;;27.18;74.41
46955;BME280;32708;51.212;6.788;2023-06-22T05:54:44;101061.41;;;26.63;75.66
46955;BME280;32708;51.212;6.788;2023-06-22T05:57:10;101065.97;;;26.49;76.77
46955;BME280;32708;51.212;6.788;2023-06-22T05:59:36;101060.97;;;26.91;75.04
46955;BME280;32708;51.212;6.788;2023-06-22T06:02:03;101067.63;;;26.47;78.37
46955;BME280;32708;51.212;6.788;2023-06-22T06:04:29;101058.50;;;26.70;77.11
46955;BME280;32708;51.212;6.788;2023-06-22T06:06:55;101067.91;;;26.83;75.46
46955;BME280;32708;51.212;6.788;2023-06-22T06:09:21;101073.31;;;26.40;77.58
46955;BME280;32708;51.212;6.788;2023-06-22T06:11:47;101075.50;;;26.55;78.08
46955;BME280;32708;51.212;6.788;2023-06-22T06:14:13;101074.66;;;26.85;75.55
46955;BME280;32708;51.212;6.788;2023-06-22T06:16:39;101074.75;;;26.51;77.65
46955;BME280;32708;51.212;6.788;2023-06-22T06:19:06;101082.03;;;26.76;76.08
46955;BME280;32708;51.212;6.788;2023-06-22T06:21:32;101080.53;;;26.68;76.52
46955;BME280;32708;51.212;6.788;2023-06-22T06:23:58;101089.03;;;26.60;77.20
46955;BME280;32708;51.212;6.788;2023-06-22T06:26:24;101081.59;;;27.08;74.49
46955;BME280;32708;51.212;6.788;2023-06-22T06:29:00;101070.88;;;26.72;77.62
46955;BME280;32708;51.212;6.788;2023-06-22T06:31:28;101065.50;;;26.54;76.90
46955;BME280;32708;51.212;6.788;2023-06-22T06:33:55;101076.88;;;26.44;79.73
46955;BME280;32708;51.212;6.788;2023-06-22T06:36:22;101078.06;;;26.73;77.70
46955;BME280;32708;51.212;6.788;2023-06-22T06:38:50;101078.97;;;26.32;79.16
46955;BME280;32708;51.212;6.788;2023-06-22T06:41:16;101086.94;;;26.34;79.92
46955;BME280;32708;51.212;6.788;2023-06-22T06:43:43;101079.06;;;26.25;80.80
46955;BME280;32708;51.212;6.788;2023-06-22T06:46:09;101082.53;;;26.67;79.12
46955;BME280;32708;51.212;6.788;2023-06-22T06:48:35;101083.94;;;26.82;79.55
46955;BME280;32708;51.212;6.788;2023-06-22T06:51:02;101085.00;;;26.31;83.37
46955;BME280;32708;51.212;6.788;2023-06-22T06:53:28;101096.66;;;25.88;85.60
46955;BME280;32708;51.212;6.788;2023-06-22T06:55:54;101088.88;;;26.41;85.13
46955;BME280;32708;51.212;6.788;2023-06-22T06:58:21;101106.47;;;25.62;90.25
46955;BME280;32708;51.212;6.788;2023-06-22T07:00:49;101103.00;;;25.92;89.35
46955;BME280;32708;51.212;6.788;2023-06-22T07:03:15;101102.25;;;25.88;90.48
46955;BME280;32708;51.212;6.788;2023-06-22T07:05:41;101091.22;;;25.74;92.17
46955;BME280;32708;51.212;6.788;2023-06-22T07:08:07;101111.78;;;24.90;96.99
46955;BME280;32708;51.212;6.788;2023-06-22T07:10:34;101103.28;;;25.12;97.39
46955;BME280;32708;51.212;6.788;2023-06-22T07:13:00;101071.63;;;25.25;97.36
46955;BME280;32708;51.212;6.788;2023-06-22T07:15:27;101072.75;;;24.76;100.00
46955;BME280;32708;51.212;6.788;2023-06-22T07:17:58;101065.91;;;25.43;98.76
46955;BME280;32708;51.212;6.788;2023-06-22T07:20:27;101079.50;;;24.79;100.00
46955;BME280;32708;51.212;6.788;2023-06-22T07:22:53;101090.81;;;24.54;100.00
46955;BME280;32708;51.212;6.788;2023-06-22T07:25:20;101087.50;;;24.77;100.00
46955;BME280;32708;51.212;6.788;2023-06-22T07:27:57;101079.66;;;25.20;100.00
46955;BME280;32708;51.212;6.788;2023-06-22T07:30:24;101087.28;;;25.16;100.00
46955;BME280;32708;51.212;6.788;2023-06-22T07:32:51;101084.16;;;25.07;100.00
46955;BME280;32708;51.212;6.788;2023-06-22T07:35:17;101075.59;;;25.28;100.00
46955;BME280;32708;51.212;6.788;2023-06-22T07:37:43;101072.63;;;25.49;100.00
46955;BME280;32708;51.212;6.788;2023-06-22T07:40:10;101067.75;;;25.12;100.00
46955;BME280;32708;51.212;6.788;2023-06-22T07:42:36;101050.94;;;25.19;100.00
46955;BME280;32708;51.212;6.788;2023-06-22T07:45:04;101055.72;;;25.64;100.00
46955;BME280;32708;51.212;6.788;2023-06-22T07:47:31;101035.91;;;25.89;100.00
46955;BME280;32708;51.212;6.788;2023-06-22T07:50:03;101038.78;;;27.74;95.91
46955;BME280;32708;51.212;6.788;2023-06-22T07:52:31;101011.41;;;29.39;88.29
46955;BME280;32708;51.212;6.788;2023-06-22T07:54:57;101015.47;;;29.22;87.86
46955;BME280;32708;51.212;6.788;2023-06-22T07:57:24;101001.66;;;30.94;80.91
46955;BME280;32708;51.212;6.788;2023-06-22T07:59:59;100997.78;;;29.54;82.56
46955;BME280;32708;51.212;6.788;2023-06-22T08:02:26;100987.44;;;29.93;85.00
46955;BME280;32708;51.212;6.788;2023-06-22T08:04:52;100971.22;;;29.84;84.17
46955;BME280;32708;51.212;6.788;2023-06-22T08:07:18;100968.78;;;31.48;79.94
46955;BME280;32708;51.212;6.788;2023-06-22T08:09:48;100960.53;;;31.54;75.07
46955;BME280;32708;51.212;6.788;2023-06-22T08:12:15;100973.81;;;31.31;78.08
46955;BME280;32708;51.212;6.788;2023-06-22T08:14:43;100960.91;;;31.08;79.47
46955;BME280;32708;51.212;6.788;2023-06-22T08:17:10;100957.16;;;31.81;76.09
46955;BME280;32708;51.212;6.788;2023-06-22T08:19:37;100955.66;;;31.32;79.95
46955;BME280;32708;51.212;6.788;2023-06-22T08:22:04;100934.88;;;33.31;69.65
46955;BME280;32708;51.212;6.788;2023-06-22T08:24:30;100934.59;;;33.38;69.22
46955;BME280;32708;51.212;6.788;2023-06-22T08:26:56;100932.84;;;33.50;65.36
46955;BME280;32708;51.212;6.788;2023-06-22T08:29:22;100941.75;;;32.35;69.21
46955;BME280;32708;51.212;6.788;2023-06-22T08:31:48;100950.47;;;31.31;73.31
46955;BME280;32708;51.212;6.788;2023-06-22T08:34:14;100956.66;;;30.65;78.66
46955;BME280;32708;51.212;6.788;2023-06-22T08:36:40;100962.63;;;30.55;79.63
46955;BME280;32708;51.212;6.788;2023-06-22T08:39:10;100961.69;;;31.09;76.80
46955;BME280;32708;51.212;6.788;2023-06-22T08:41:37;100963.31;;;30.59;79.37
46955;BME280;32708;51.212;6.788;2023-06-22T08:44:03;100955.19;;;30.86;79.99
46955;BME280;32708;51.212;6.788;2023-06-22T08:46:29;100946.53;;;31.72;74.87
46955;BME280;32708;51.212;6.788;2023-06-22T08:48:58;100932.31;;;33.79;69.88
46955;BME280;32708;51.212;6.788;2023-06-22T08:51:25;100930.13;;;33.92;66.22
46955;BME280;32708;51.212;6.788;2023-06-22T08:53:51;100928.13;;;33.19;67.11
46955;BME280;32708;51.212;6.788;2023-06-22T08:56:17;100924.19;;;32.09;71.02
46955;BME280;32708;51.212;6.788;2023-06-22T08:58:44;100926.50;;;32.32;72.43
46955;BME280;32708;51.212;6.788;2023-06-22T09:01:10;100906.94;;;32.56;70.17
46955;BME280;32708;51.212;6.788;2023-06-22T09:03:37;100914.53;;;31.44;72.04
46955;BME280;32708;51.212;6.788;2023-06-22T09:06:03;100904.00;;;32.28;71.27
46955;BME280;32708;51.212;6.788;2023-06-22T09:08:30;100908.47;;;32.88;67.53
46955;BME280;32708;51.212;6.788;2023-06-22T09:10:56;100920.47;;;31.68;72.21
46955;BME280;32708;51.212;6.788;2023-06-22T09:13:22;100907.72;;;31.19;71.97
46955;BME280;32708;51.212;6.788;2023-06-22T09:15:48;100904.00;;;31.88;70.97
46955;BME280;32708;51.212;6.788;2023-06-22T09:18:14;100916.59;;;31.74;73.92
46955;BME280;32708;51.212;6.788;2023-06-22T09:20:40;100919.19;;;32.13;71.30
46955;BME280;32708;51.212;6.788;2023-06-22T09:23:07;100918.72;;;32.14;71.54
46955;BME280;32708;51.212;6.788;2023-06-22T09:25:33;100928.75;;;31.40;72.89
46955;BME280;32708;51.212;6.788;2023-06-22T09:27:59;100915.44;;;31.63;70.10
46955;BME280;32708;51.212;6.788;2023-06-22T09:30:25;100901.72;;;31.30;72.02
46955;BME280;32708;51.212;6.788;2023-06-22T09:32:51;100886.28;;;31.88;70.45
46955;BME280;32708;51.212;6.788;2023-06-22T09:35:18;100872.53;;;32.39;67.88
46955;BME280;32708;51.212;6.788;2023-06-22T09:37:44;100871.09;;;31.94;67.08
46955;BME280;32708;51.212;6.788;2023-06-22T09:40:11;100867.91;;;32.73;63.85
46955;BME280;32708;51.212;6.788;2023-06-22T09:42:39;100859.53;;;32.11;63.93
46955;BME280;32708;51.212;6.788;2023-06-22T09:45:06;100872.00;;;31.38;66.27
46955;BME280;32708;51.212;6.788;2023-06-22T09:47:32;100857.47;;;32.02;63.37
46955;BME280;32708;51.212;6.788;2023-06-22T09:49:58;100855.00;;;32.81;62.28
46955;BME280;32708;51.212;6.788;2023-06-22T09:52:25;100845.28;;;33.37;59.52
46955;BME280;32708;51.212;6.788;2023-06-22T09:54:52;100849.34;;;33.54;59.25
46955;BME280;32708;51.212;6.788;2023-06-22T09:57:18;100840.88;;;32.99;61.04
46955;BME280;32708;51.212;6.788;2023-06-22T09:59:44;100852.53;;;32.92;60.14
46955;BME280;32708;51.212;6.788;2023-06-22T10:02:10;100849.69;;;33.10;59.75
46955;BME280;32708;51.212;6.788;2023-06-22T10:04:36;100844.34;;;33.12;60.98
46955;BME280;32708;51.212;6.788;2023-06-22T10:07:03;100846.84;;;32.74;61.78
46955;BME280;32708;51.212;6.788;2023-06-22T10:09:29;100843.75;;;32.31;61.79
46955;BME280;32708;51.212;6.788;2023-06-22T10:11:58;100844.16;;;32.70;62.52
46955;BME280;32708;51.212;6.788;2023-06-22T10:14:24;100841.81;;;33.33;60.15
46955;BME280;32708;51.212;6.788;2023-06-22T10:16:52;100842.78;;;33.02;61.09
46955;BME280;32708;51.212;6.788;2023-06-22T10:19:19;100861.47;;;31.61;65.36
46955;BME280;32708;51.212;6.788;2023-06-22T10:21:45;100869.16;;;31.60;68.14
46955;BME280;32708;51.212;6.788;2023-06-22T10:24:11;100853.09;;;32.10;66.11
46955;BME280;32708;51.212;6.788;2023-06-22T10:26:37;100858.72;;;32.50;64.85
46955;BME280;32708;51.212;6.788;2023-06-22T10:29:03;100865.78;;;32.05;67.44
46955;BME280;32708;51.212;6.788;2023-06-22T10:31:30;100874.97;;;32.28;66.34
46955;BME280;32708;51.212;6.788;2023-06-22T10:33:56;100885.16;;;31.85;67.79
46955;BME280;32708;51.212;6.788;2023-06-22T10:36:23;100893.91;;;31.56;68.80
46955;BME280;32708;51.212;6.788;2023-06-22T10:38:49;100899.47;;;31.91;68.51
46955;BME280;32708;51.212;6.788;2023-06-22T10:41:15;100900.94;;;31.30;71.13
46955;BME280;32708;51.212;6.788;2023-06-22T10:43:42;100900.31;;;31.57;71.52
46955;BME280;32708;51.212;6.788;2023-06-22T10:46:09;100905.53;;;31.02;73.88
46955;BME280;32708;51.212;6.788;2023-06-22T10:48:35;100914.59;;;31.18;75.87
46955;BME280;32708;51.212;6.788;2023-06-22T10:51:04;100922.91;;;31.57;73.34
46955;BME280;32708;51.212;6.788;2023-06-22T10:53:30;100947.47;;;31.00;80.84
46955;BME280;32708;51.212;6.788;2023-06-22T10:55:56;100957.19;;;30.99;79.55
46955;BME280;32708;51.212;6.788;2023-06-22T10:58:22;100980.47;;;30.77;89.71
46955;BME280;32708;51.212;6.788;2023-06-22T11:00:48;100988.88;;;30.13;93.59
46955;BME280;32708;51.212;6.788;2023-06-22T11:03:14;101021.59;;;27.92;100.00
46955;BME280;32708;51.212;6.788;2023-06-22T11:05:40;101000.09;;;26.41;100.00
46955;BME280;32708;51.212;6.788;2023-06-22T11:08:07;100999.31;;;26.68;100.00
46955;BME280;32708;51.212;6.788;2023-06-22T11:10:33;101003.78;;;26.61;100.00
46955;BME280;32708;51.212;6.788;2023-06-22T11:12:59;100998.31;;;26.54;100.00
46955;BME280;32708;51.212;6.788;2023-06-22T11:15:25;100997.72;;;26.67;100.00
46955;BME280;32708;51.212;6.788;2023-06-22T11:17:52;101001.53;;;26.80;100.00
46955;BME280;32708;51.212;6.788;2023-06-22T11:20:18;100993.75;;;26.64;100.00
46955;BME280;32708;51.212;6.788;2023-06-22T11:22:44;100984.75;;;26.49;100.00
46955;BME280;32708;51.212;6.788;2023-06-22T11:25:10;100974.59;;;26.32;100.00
46955;BME280;32708;51.212;6.788;2023-06-22T11:27:38;100965.38;;;26.04;100.00
46955;BME280;32708;51.212;6.788;2023-06-22T11:30:05;100951.75;;;26.06;100.00
46955;BME280;32708;51.212;6.788;2023-06-22T11:32:31;100947.63;;;26.15;100.00
46955;BME280;32708;51.212;6.788;2023-06-22T11:34:57;100931.28;;;25.83;100.00
46955;BME280;32708;51.212;6.788;2023-06-22T11:37:23;100922.97;;;25.75;100.00
46955;BME280;32708;51.212;6.788;2023-06-22T11:39:49;100909.09;;;26.26;100.00
46955;BME280;32708;51.212;6.788;2023-06-22T11:42:15;100901.16;;;26.21;100.00
46955;BME280;32708;51.212;6.788;2023-06-22T11:44:42;100889.44;;;26.56;100.00
46955;BME280;32708;51.212;6.788;2023-06-22T11:47:09;100883.00;;;26.83;100.00
46955;BME280;32708;51.212;6.788;2023-06-22T11:49:36;100869.13;;;26.76;100.00
46955;BME280;32708;51.212;6.788;2023-06-22T11:52:02;100864.06;;;26.67;100.00
46955;BME280;32708;51.212;6.788;2023-06-22T11:54:28;100851.06;;;26.30;100.00
46955;BME280;32708;51.212;6.788;2023-06-22T11:56:55;100829.28;;;25.91;100.00
46955;BME280;32708;51.212;6.788;2023-06-22T11:59:21;100802.44;;;26.20;100.00
46955;BME280;32708;51.212;6.788;2023-06-22T12:01:48;100786.81;;;26.23;100.00
46955;BME280;32708;51.212;6.788;2023-06-22T12:04:15;100778.63;;;25.24;100.00
46955;BME280;32708;51.212;6.788;2023-06-22T12:06:41;100784.75;;;26.50;100.00
46955;BME280;32708;51.212;6.788;2023-06-22T12:09:12;100780.31;;;26.29;100.00
46955;BME280;32708;51.212;6.788;2023-06-22T12:11:39;100793.91;;;26.27;100.00
46955;BME280;32708;51.212;6.788;2023-06-22T12:14:05;100779.97;;;26.71;100.00
46955;BME280;32708;51.212;6.788;2023-06-22T12:16:32;100783.25;;;26.89;100.00
46955;BME280;32708;51.212;6.788;2023-06-22T12:18:58;100796.97;;;26.37;100.00
46955;BME280;32708;51.212;6.788;2023-06-22T12:21:24;100793.94;;;26.74;100.00
46955;BME280;32708;51.212;6.788;2023-06-22T12:23:50;100798.25;;;26.99;100.00
46955;BME280;32708;51.212;6.788;2023-06-22T12:26:16;100797.47;;;26.98;100.00
46955;BME280;32708;51.212;6.788;2023-06-22T12:28:42;100793.97;;;26.51;100.00
46955;BME280;32708;51.212;6.788;2023-06-22T12:31:08;100774.09;;;27.08;100.00
46955;BME280;32708;51.212;6.788;2023-06-22T12:33:35;100767.88;;;26.97;100.00
46955;BME280;32708;51.212;6.788;2023-06-22T12:36:01;100762.34;;;27.13;100.00
46955;BME280;32708;51.212;6.788;2023-06-22T12:38:27;100759.25;;;27.64;100.00
46955;BME280;32708;51.212;6.788;2023-06-22T12:40:53;100770.88;;;27.46;100.00
46955;BME280;32708;51.212;6.788;2023-06-22T12:43:19;100774.16;;;27.61;100.00
46955;BME280;32708;51.212;6.788;2023-06-22T12:45:45;100772.28;;;27.54;100.00
46955;BME280;32708;51.212;6.788;2023-06-22T12:48:12;100763.22;;;27.66;100.00
46955;BME280;32708;51.212;6.788;2023-06-22T12:50:39;100772.72;;;27.17;100.00
46955;BME280;32708;51.212;6.788;2023-06-22T12:53:08;100756.94;;;27.95;100.00
46955;BME280;32708;51.212;6.788;2023-06-22T12:55:34;100752.81;;;28.16;100.00